createdAt,value
2022-12-29T00:01:32.284Z,16.48
2022-12-29T00:04:00.655Z,15.63
2022-12-29T00:06:28.678Z,15.88
2022-12-29T00:08:59.837Z,16.07
2022-12-29T00:11:28.737Z,15.40
2022-12-29T00:14:15.238Z,14.95
2022-12-29T00:16:46.045Z,14.05
2022-12-29T00:19:32.581Z,13.25
2022-12-29T00:22:19.237Z,12.40
2022-12-29T00:25:06.768Z,12.68
2022-12-29T00:27:53.488Z,11.00
2022-12-29T00:30:43.319Z,9.43
2022-12-29T00:33:37.875Z,9.28
2022-12-29T00:36:28.503Z,9.78
2022-12-29T00:39:24.300Z,11.25
2022-12-29T00:42:11.545Z,9.80
2022-12-29T00:44:39.308Z,10.28
2022-12-29T00:47:07.236Z,11.53
2022-12-29T00:49:35.021Z,11.20
2022-12-29T00:52:08.709Z,12.93
2022-12-29T00:54:39.261Z,14.03
2022-12-29T00:57:09.032Z,14.05
2022-12-29T00:59:38.833Z,14.90
2022-12-29T01:02:07.195Z,14.35
2022-12-29T01:04:35.543Z,14.50
2022-12-29T01:07:02.966Z,14.40
2022-12-29T01:09:48.994Z,14.07
2022-12-29T01:12:16.553Z,14.00
2022-12-29T01:14:47.226Z,15.38
2022-12-29T01:17:15.006Z,14.65
2022-12-29T01:19:43.373Z,14.55
2022-12-29T01:22:11.159Z,14.25
2022-12-29T01:24:39.107Z,14.47
2022-12-29T01:27:06.489Z,15.48
2022-12-29T01:29:34.899Z,15.72
2022-12-29T01:32:03.051Z,15.63
2022-12-29T01:34:31.230Z,15.95
2022-12-29T01:36:59.384Z,14.87
2022-12-29T01:39:27.596Z,14.30
2022-12-29T01:41:55.315Z,14.03
2022-12-29T01:44:53.044Z,14.40
2022-12-29T01:47:40.106Z,13.40
2022-12-29T01:50:24.119Z,14.45
2022-12-29T01:53:13.953Z,14.00
2022-12-29T01:55:48.212Z,14.75
2022-12-29T01:58:17.628Z,14.28
2022-12-29T02:00:47.230Z,12.70
2022-12-29T02:03:16.917Z,13.72
2022-12-29T02:05:58.127Z,13.83
2022-12-29T02:08:29.429Z,13.93
2022-12-29T02:10:58.207Z,13.72
2022-12-29T02:13:27.414Z,14.33
2022-12-29T02:16:22.239Z,12.75
2022-12-29T02:19:17.006Z,13.05
2022-12-29T02:22:04.097Z,13.22
2022-12-29T02:25:04.042Z,12.30
2022-12-29T02:27:55.734Z,12.70
2022-12-29T02:30:37.868Z,13.45
2022-12-29T02:33:12.054Z,12.63
2022-12-29T02:35:52.868Z,11.68
2022-12-29T02:38:34.011Z,11.75
2022-12-29T02:41:27.297Z,12.05
2022-12-29T02:44:32.019Z,13.58
2022-12-29T02:47:18.750Z,13.30
2022-12-29T02:49:50.651Z,12.10
2022-12-29T02:52:22.066Z,12.10
2022-12-29T02:54:51.996Z,12.05
2022-12-29T02:57:27.747Z,12.45
2022-12-29T02:59:59.296Z,12.53
2022-12-29T03:02:47.380Z,12.60
2022-12-29T03:05:25.769Z,11.78
2022-12-29T03:08:00.319Z,11.90
2022-12-29T03:10:44.162Z,12.25
2022-12-29T03:13:48.492Z,12.70
2022-12-29T03:16:22.891Z,12.63
2022-12-29T03:19:03.687Z,11.68
2022-12-29T03:22:13.480Z,12.58
2022-12-29T03:24:47.930Z,12.50
2022-12-29T03:29:52.729Z,13.08
2022-12-29T03:32:23.513Z,13.95
2022-12-29T03:34:52.223Z,15.35
2022-12-29T03:37:26.533Z,15.35
2022-12-29T03:39:54.239Z,15.13
2022-12-29T03:42:25.577Z,14.60
2022-12-29T03:44:56.938Z,14.68
2022-12-29T03:47:31.780Z,15.35
2022-12-29T03:50:00.499Z,14.03
2022-12-29T03:52:28.920Z,14.03
2022-12-29T03:54:56.535Z,14.25
2022-12-29T03:57:24.958Z,13.60
2022-12-29T03:59:54.265Z,13.53
2022-12-29T04:02:22.578Z,13.80
2022-12-29T04:04:50.569Z,14.07
2022-12-29T04:07:18.581Z,17.85
2022-12-29T04:09:46.014Z,16.10
2022-12-29T04:12:16.946Z,13.78
2022-12-29T04:14:44.515Z,13.28
2022-12-29T04:17:12.913Z,13.32
2022-12-29T04:19:41.570Z,12.60
2022-12-29T04:22:12.507Z,12.58
2022-12-29T04:24:41.208Z,13.15
2022-12-29T04:27:11.225Z,12.73
2022-12-29T04:29:41.420Z,13.50
2022-12-29T04:32:11.024Z,13.85
2022-12-29T04:34:40.442Z,12.85
2022-12-29T04:37:08.445Z,13.53
2022-12-29T04:39:36.365Z,13.43
2022-12-29T04:42:05.095Z,13.60
2022-12-29T04:44:33.954Z,12.73
2022-12-29T04:47:05.241Z,14.18
2022-12-29T04:49:37.292Z,12.88
2022-12-29T04:52:23.316Z,13.55
2022-12-29T04:54:51.086Z,12.98
2022-12-29T04:57:20.784Z,12.73
2022-12-29T04:59:50.573Z,13.80
2022-12-29T05:02:22.519Z,12.45
2022-12-29T05:04:51.667Z,13.40
2022-12-29T05:07:21.315Z,13.32
2022-12-29T05:09:50.343Z,12.10
2022-12-29T05:12:18.080Z,13.83
2022-12-29T05:14:48.111Z,13.60
2022-12-29T05:17:16.656Z,12.40
2022-12-29T05:19:45.275Z,13.10
2022-12-29T05:22:13.346Z,12.90
2022-12-29T05:24:42.816Z,13.08
2022-12-29T05:27:11.309Z,13.40
2022-12-29T05:29:40.857Z,13.70
2022-12-29T05:32:09.449Z,13.53
2022-12-29T05:34:37.861Z,14.35
2022-12-29T05:37:06.348Z,14.53
2022-12-29T05:39:34.148Z,15.83
2022-12-29T05:42:03.875Z,14.15
2022-12-29T05:44:39.426Z,13.88
2022-12-29T05:47:14.960Z,13.22
2022-12-29T05:49:51.274Z,13.48
2022-12-29T05:52:36.159Z,13.83
2022-12-29T05:55:04.789Z,13.72
2022-12-29T05:57:34.616Z,13.65
2022-12-29T06:00:08.193Z,13.70
2022-12-29T06:02:37.982Z,13.90
2022-12-29T06:05:07.574Z,14.10
2022-12-29T06:07:36.801Z,13.35
2022-12-29T06:12:50.939Z,14.20
2022-12-29T06:15:19.027Z,14.03
2022-12-29T06:17:48.121Z,13.50
2022-12-29T06:20:21.400Z,13.95
2022-12-29T06:22:48.878Z,14.70
2022-12-29T06:25:17.511Z,14.47
2022-12-29T06:27:45.410Z,14.35
2022-12-29T06:30:14.323Z,15.08
2022-12-29T06:32:42.538Z,14.47
2022-12-29T06:35:12.473Z,14.13
2022-12-29T06:37:42.000Z,15.18
2022-12-29T06:40:10.940Z,14.28
2022-12-29T06:42:45.714Z,15.20
2022-12-29T06:45:15.667Z,15.13
2022-12-29T06:47:43.188Z,16.17
2022-12-29T06:50:11.165Z,15.53
2022-12-29T06:52:39.253Z,15.48
2022-12-29T06:55:10.562Z,16.15
2022-12-29T06:57:38.438Z,16.35
2022-12-29T07:00:07.570Z,15.35
2022-12-29T07:02:35.774Z,15.85
2022-12-29T07:05:04.456Z,15.90
2022-12-29T07:07:33.084Z,14.35
2022-12-29T07:10:01.320Z,16.62
2022-12-29T07:12:29.725Z,14.47
2022-12-29T07:14:57.333Z,16.02
2022-12-29T07:17:25.904Z,16.10
2022-12-29T07:19:53.684Z,16.00
2022-12-29T07:22:22.179Z,16.42
2022-12-29T07:24:50.196Z,14.78
2022-12-29T07:27:18.067Z,15.25
2022-12-29T07:29:45.508Z,19.12
2022-12-29T07:32:16.761Z,20.45
2022-12-29T07:34:47.499Z,18.15
2022-12-29T07:37:19.160Z,16.45
2022-12-29T07:39:47.162Z,15.93
2022-12-29T07:42:15.248Z,16.73
2022-12-29T07:44:45.078Z,17.37
2022-12-29T07:47:30.029Z,16.27
2022-12-29T07:49:58.133Z,17.25
2022-12-29T07:52:26.427Z,18.15
2022-12-29T07:54:55.872Z,17.15
2022-12-29T07:57:28.103Z,17.90
2022-12-29T07:59:59.584Z,19.42
2022-12-29T08:02:30.987Z,18.45
2022-12-29T08:04:58.872Z,18.40
2022-12-29T08:07:26.781Z,19.57
2022-12-29T08:09:54.684Z,17.50
2022-12-29T08:12:22.961Z,20.12
2022-12-29T08:14:51.200Z,19.52
2022-12-29T08:17:19.369Z,18.35
2022-12-29T08:19:47.323Z,18.62
2022-12-29T08:22:16.569Z,19.35
2022-12-29T08:24:44.977Z,18.40
2022-12-29T08:27:32.726Z,18.00
2022-12-29T08:30:01.816Z,20.17
2022-12-29T08:32:29.860Z,20.02
2022-12-29T08:34:58.913Z,19.25
2022-12-29T08:37:31.230Z,18.77
2022-12-29T08:39:58.958Z,19.70
2022-12-29T08:42:28.253Z,19.73
2022-12-29T08:44:56.314Z,19.10
2022-12-29T08:47:24.266Z,21.45
2022-12-29T08:49:52.081Z,21.40
2022-12-29T08:52:20.632Z,21.57
2022-12-29T08:54:49.794Z,19.85
2022-12-29T08:57:20.847Z,20.20
2022-12-29T08:59:53.107Z,18.75
2022-12-29T09:02:24.271Z,19.55
2022-12-29T09:04:54.940Z,18.07
2022-12-29T09:07:22.824Z,19.40
2022-12-29T09:09:51.510Z,19.55
2022-12-29T09:12:19.961Z,20.02
2022-12-29T09:14:48.236Z,18.27
2022-12-29T09:17:34.645Z,19.50
2022-12-29T09:20:02.255Z,16.82
2022-12-29T09:22:30.060Z,19.25
2022-12-29T09:24:57.980Z,19.67
2022-12-29T09:27:25.755Z,21.68
2022-12-29T09:29:53.545Z,20.68
2022-12-29T09:32:23.522Z,20.00
2022-12-29T09:34:51.249Z,19.23
2022-12-29T09:37:19.014Z,21.62
2022-12-29T09:39:52.275Z,20.08
2022-12-29T09:42:22.998Z,20.05
2022-12-29T09:45:12.668Z,20.10
2022-12-29T09:47:43.086Z,20.95
2022-12-29T09:50:23.175Z,19.85
2022-12-29T09:52:57.297Z,19.50
2022-12-29T09:55:39.135Z,19.37
2022-12-29T09:58:28.118Z,20.85
2022-12-29T10:01:00.111Z,21.50
2022-12-29T10:03:43.025Z,21.95
2022-12-29T10:06:17.555Z,23.65
2022-12-29T10:09:05.691Z,22.85
2022-12-29T10:11:56.177Z,22.07
2022-12-29T10:14:45.840Z,23.45
2022-12-29T10:17:17.688Z,23.83
2022-12-29T10:19:49.345Z,23.80
2022-12-29T10:22:26.617Z,23.80
2022-12-29T10:24:57.814Z,24.00
2022-12-29T10:27:26.042Z,22.80
2022-12-29T10:29:56.899Z,22.90
2022-12-29T10:32:40.527Z,22.10
2022-12-29T10:35:37.583Z,22.70
2022-12-29T10:38:34.696Z,23.45
2022-12-29T10:41:12.481Z,22.37
2022-12-29T10:43:50.897Z,22.87
2022-12-29T10:46:31.205Z,23.30
2022-12-29T10:48:59.034Z,24.18
2022-12-29T10:51:29.506Z,23.15
2022-12-29T10:54:01.515Z,25.17
2022-12-29T10:56:39.265Z,23.10
2022-12-29T11:02:41.734Z,23.00
2022-12-29T11:05:30.140Z,23.92
2022-12-29T11:08:11.488Z,22.30
2022-12-29T11:10:45.117Z,23.38
2022-12-29T11:13:29.886Z,24.15
2022-12-29T11:15:57.930Z,23.80
2022-12-29T11:18:39.860Z,24.12
2022-12-29T11:21:11.145Z,24.65
2022-12-29T11:23:43.538Z,25.57
2022-12-29T11:26:33.818Z,26.68
2022-12-29T11:29:16.565Z,27.70
2022-12-29T11:31:51.483Z,25.97
2022-12-29T11:34:33.384Z,25.75
2022-12-29T11:37:07.731Z,27.42
2022-12-29T11:39:42.334Z,25.68
2022-12-29T11:42:19.505Z,27.52
2022-12-29T11:44:52.169Z,25.75
2022-12-29T11:47:26.987Z,29.75
2022-12-29T11:49:57.593Z,27.70
2022-12-29T11:52:29.349Z,30.85
2022-12-29T11:54:58.444Z,30.62
2022-12-29T11:57:27.180Z,32.65
2022-12-29T11:59:59.677Z,32.48
2022-12-29T12:02:40.524Z,30.20
2022-12-29T12:05:08.444Z,32.93
2022-12-29T12:07:45.996Z,32.13
2022-12-29T12:10:24.034Z,31.93
2022-12-29T12:12:55.703Z,33.00
2022-12-29T12:15:44.992Z,34.53
2022-12-29T12:18:15.223Z,32.93
2022-12-29T12:21:05.596Z,33.18
2022-12-29T12:23:52.448Z,33.05
2022-12-29T12:26:26.394Z,32.60
2022-12-29T12:29:04.800Z,31.57
2022-12-29T12:31:39.558Z,40.75
2022-12-29T12:36:52.585Z,32.33
2022-12-29T12:39:53.483Z,32.03
2022-12-29T12:42:51.370Z,32.13
2022-12-29T12:45:56.635Z,31.55
2022-12-29T12:49:02.374Z,31.45
2022-12-29T12:52:04.847Z,33.55
2022-12-29T12:54:50.636Z,33.63
2022-12-29T12:57:46.071Z,33.13
2022-12-29T13:00:23.107Z,32.95
2022-12-29T13:03:14.917Z,33.92
2022-12-29T13:05:59.210Z,33.53
2022-12-29T13:08:48.826Z,33.33
2022-12-29T13:11:28.750Z,34.20
2022-12-29T13:14:18.451Z,33.53
2022-12-29T13:17:05.119Z,33.40
2022-12-29T13:19:53.282Z,32.17
2022-12-29T13:22:25.239Z,33.73
2022-12-29T13:25:20.401Z,35.63
2022-12-29T13:27:58.241Z,33.38
2022-12-29T13:30:41.908Z,33.13
2022-12-29T13:33:32.962Z,32.95
2022-12-29T13:36:07.557Z,38.15
2022-12-29T13:38:48.058Z,33.83
2022-12-29T13:41:19.991Z,34.63
2022-12-29T13:43:51.821Z,35.55
2022-12-29T13:46:23.551Z,32.93
2022-12-29T13:49:01.565Z,34.58
2022-12-29T13:51:31.237Z,33.95
2022-12-29T13:54:25.627Z,33.45
2022-12-29T13:57:09.933Z,34.70
2022-12-29T13:59:47.820Z,34.63
2022-12-29T14:02:22.698Z,33.67
2022-12-29T14:05:00.262Z,34.85
2022-12-29T14:07:29.610Z,35.08
2022-12-29T14:10:01.432Z,34.48
2022-12-29T14:12:37.901Z,35.58
2022-12-29T14:15:15.008Z,41.83
2022-12-29T14:17:45.955Z,34.35
2022-12-29T14:20:24.834Z,35.83
2022-12-29T14:23:05.351Z,34.60
2022-12-29T14:25:56.714Z,34.10
2022-12-29T14:28:32.839Z,34.03
2022-12-29T14:31:08.826Z,35.23
2022-12-29T14:33:36.737Z,33.40
2022-12-29T14:36:29.438Z,35.03
2022-12-29T14:39:22.033Z,34.85
2022-12-29T14:41:51.229Z,35.73
2022-12-29T14:44:21.685Z,34.98
2022-12-29T14:46:58.782Z,35.50
2022-12-29T14:49:35.783Z,36.13
2022-12-29T14:52:10.362Z,34.55
2022-12-29T14:54:42.030Z,38.67
2022-12-29T14:57:22.054Z,42.83
2022-12-29T14:59:52.129Z,40.58
2022-12-29T15:02:22.921Z,42.08
2022-12-29T15:04:53.121Z,41.48
2022-12-29T15:07:21.397Z,38.17
2022-12-29T15:09:55.733Z,39.78
2022-12-29T15:12:42.973Z,39.13
2022-12-29T15:15:28.374Z,39.83
2022-12-29T15:17:56.765Z,39.73
2022-12-29T15:20:27.794Z,35.03
2022-12-29T15:22:59.257Z,36.42
2022-12-29T15:25:27.893Z,38.02
2022-12-29T15:27:59.631Z,37.15
2022-12-29T15:30:27.297Z,37.30
2022-12-29T15:32:55.139Z,39.90
2022-12-29T15:35:36.058Z,38.70
2022-12-29T15:38:23.489Z,39.80
2022-12-29T15:40:55.798Z,37.13
2022-12-29T15:43:47.413Z,36.63
2022-12-29T15:46:15.181Z,35.80
2022-12-29T15:48:43.529Z,35.92
2022-12-29T15:51:18.413Z,37.38
2022-12-29T15:53:48.683Z,38.55
2022-12-29T15:56:17.943Z,37.25
2022-12-29T15:58:51.591Z,37.48
2022-12-29T16:01:23.862Z,38.85
2022-12-29T16:03:56.555Z,40.20
2022-12-29T16:06:33.734Z,40.15
2022-12-29T16:09:08.210Z,41.37
2022-12-29T16:14:18.852Z,43.58
2022-12-29T16:16:48.871Z,42.73
2022-12-29T16:19:32.622Z,43.05
2022-12-29T16:22:02.443Z,41.68
2022-12-29T16:24:33.596Z,40.85
2022-12-29T16:27:11.106Z,40.50
2022-12-29T16:29:40.877Z,39.75
2022-12-29T16:32:27.267Z,39.25
2022-12-29T16:35:17.034Z,38.08
2022-12-29T16:37:45.774Z,41.08
2022-12-29T16:40:23.550Z,39.95
2022-12-29T16:42:52.596Z,37.78
2022-12-29T16:45:24.708Z,38.38
2022-12-29T16:48:14.022Z,38.02
2022-12-29T16:50:44.773Z,39.38
2022-12-29T16:53:40.183Z,38.95
2022-12-29T16:56:17.319Z,42.90
2022-12-29T16:58:50.642Z,43.17
2022-12-29T17:01:20.479Z,45.03
2022-12-29T17:03:54.993Z,44.33
2022-12-29T17:06:24.409Z,42.60
2022-12-29T17:08:53.679Z,41.00
2022-12-29T17:11:58.405Z,41.88
2022-12-29T17:14:40.338Z,37.63
2022-12-29T17:17:24.507Z,37.13
2022-12-29T17:19:54.670Z,39.13
2022-12-29T17:22:26.053Z,41.65
2022-12-29T17:24:56.029Z,39.80
2022-12-29T17:27:30.619Z,39.35
2022-12-29T17:30:05.911Z,41.08
2022-12-29T17:32:34.347Z,39.50
2022-12-29T17:35:02.567Z,41.15
2022-12-29T17:37:34.439Z,38.70
2022-12-29T17:40:02.615Z,41.08
2022-12-29T17:42:32.796Z,40.25
2022-12-29T17:45:02.765Z,40.50
2022-12-29T17:47:30.948Z,40.50
2022-12-29T17:49:59.014Z,42.67
2022-12-29T17:52:27.005Z,41.55
2022-12-29T17:54:56.317Z,40.65
2022-12-29T17:57:24.283Z,42.67
2022-12-29T17:59:52.598Z,41.02
2022-12-29T18:02:34.680Z,40.80
2022-12-29T18:05:02.153Z,41.95
2022-12-29T18:07:35.715Z,40.03
2022-12-29T18:10:00.450Z,41.00
2022-12-29T18:12:34.959Z,40.92
2022-12-29T18:15:02.456Z,40.63
2022-12-29T18:17:30.224Z,39.70
2022-12-29T18:19:58.162Z,40.38
2022-12-29T18:22:30.028Z,41.42
2022-12-29T18:24:57.838Z,41.85
2022-12-29T18:27:27.106Z,40.58
2022-12-29T18:29:54.610Z,41.35
2022-12-29T18:32:22.541Z,40.67
2022-12-29T18:34:50.334Z,38.90
2022-12-29T18:37:18.285Z,45.75
2022-12-29T18:39:46.683Z,43.00
2022-12-29T18:42:17.683Z,41.65
2022-12-29T18:44:45.895Z,43.98
2022-12-29T18:47:14.181Z,43.65
2022-12-29T18:49:42.261Z,42.78
2022-12-29T18:52:12.725Z,42.20
2022-12-29T18:54:40.773Z,41.48
2022-12-29T18:57:08.512Z,41.48
2022-12-29T18:59:36.561Z,43.55
2022-12-29T19:02:04.373Z,43.60
2022-12-29T19:04:32.457Z,43.38
2022-12-29T19:07:00.843Z,42.55
2022-12-29T19:09:28.870Z,43.63
2022-12-29T19:11:56.259Z,40.55
2022-12-29T19:14:24.495Z,41.45
2022-12-29T19:16:51.885Z,40.73
2022-12-29T19:19:19.705Z,39.95
2022-12-29T19:21:47.910Z,41.15
2022-12-29T19:24:16.197Z,40.33
2022-12-29T19:26:45.190Z,40.15
2022-12-29T19:29:16.563Z,40.33
2022-12-29T19:31:44.366Z,41.70
2022-12-29T19:34:17.676Z,42.58
2022-12-29T19:36:46.206Z,40.88
2022-12-29T19:39:18.343Z,45.78
2022-12-29T19:41:46.466Z,45.45
2022-12-29T19:44:14.688Z,43.05
2022-12-29T19:46:42.341Z,43.08
2022-12-29T19:49:10.478Z,44.67
2022-12-29T19:51:38.516Z,42.08
2022-12-29T19:54:06.044Z,39.73
2022-12-29T19:56:33.907Z,43.30
2022-12-29T19:59:02.458Z,41.88
2022-12-29T20:01:30.619Z,45.55
2022-12-29T20:03:59.044Z,44.40
2022-12-29T20:06:26.706Z,42.35
2022-12-29T20:08:55.939Z,40.75
2022-12-29T20:11:23.212Z,38.25
2022-12-29T20:13:51.979Z,40.63
2022-12-29T20:16:21.163Z,40.08
2022-12-29T20:18:49.622Z,40.50
2022-12-29T20:21:23.487Z,39.23
2022-12-29T20:23:53.568Z,40.30
2022-12-29T20:26:29.073Z,37.50
2022-12-29T20:28:58.648Z,39.40
2022-12-29T20:31:29.305Z,39.33
2022-12-29T20:33:58.967Z,39.18
2022-12-29T20:36:29.991Z,38.78
2022-12-29T20:39:00.129Z,39.53
2022-12-29T20:41:29.083Z,38.42
2022-12-29T20:43:57.986Z,38.90
2022-12-29T20:46:35.364Z,38.15
2022-12-29T20:49:02.208Z,38.90
2022-12-29T20:52:04.381Z,39.00
2022-12-29T20:54:10.914Z,39.20
2022-12-29T20:56:39.423Z,36.88
2022-12-29T20:59:27.021Z,41.28
2022-12-29T21:01:41.011Z,42.93
2022-12-29T21:04:10.992Z,45.28
2022-12-29T21:06:38.893Z,40.83
2022-12-29T21:09:07.873Z,39.85
2022-12-29T21:11:38.453Z,39.58
2022-12-29T21:14:06.490Z,40.33
2022-12-29T21:16:34.462Z,40.23
2022-12-29T21:19:04.350Z,39.60
2022-12-29T21:21:32.071Z,39.20
2022-12-29T21:24:01.590Z,41.63
2022-12-29T21:26:29.863Z,38.83
2022-12-29T21:28:57.703Z,38.10
2022-12-29T21:31:29.183Z,40.73
2022-12-29T21:33:58.464Z,38.58
2022-12-29T21:36:30.231Z,39.08
2022-12-29T21:38:58.406Z,39.58
2022-12-29T21:41:26.994Z,38.13
2022-12-29T21:44:13.384Z,38.17
2022-12-29T21:46:44.967Z,37.75
2022-12-29T21:49:13.074Z,36.38
2022-12-29T21:51:54.710Z,39.53
2022-12-29T21:54:49.873Z,39.00
2022-12-29T21:57:37.708Z,37.85
2022-12-29T22:00:26.280Z,38.13
2022-12-29T22:03:21.931Z,36.90
2022-12-29T22:06:03.033Z,36.70
2022-12-29T22:08:50.623Z,35.58
2022-12-29T22:11:36.473Z,36.08
2022-12-29T22:14:04.730Z,37.05
2022-12-29T22:16:32.692Z,36.15
2022-12-29T22:19:00.853Z,37.28
2022-12-29T22:21:28.361Z,37.45
2022-12-29T22:23:56.048Z,36.58
2022-12-29T22:26:24.280Z,35.63
2022-12-29T22:28:52.813Z,35.90
2022-12-29T22:31:29.805Z,35.85
2022-12-29T22:33:59.824Z,36.13
2022-12-29T22:36:29.492Z,37.45
2022-12-29T22:38:57.191Z,36.38
2022-12-29T22:41:24.915Z,36.15
2022-12-29T22:43:53.384Z,35.78
2022-12-29T22:46:21.908Z,34.50
2022-12-29T22:48:49.750Z,34.98
2022-12-29T22:51:17.328Z,35.90
2022-12-29T22:53:46.093Z,34.23
2022-12-29T22:56:14.935Z,34.35
2022-12-29T22:58:44.624Z,32.93
2022-12-29T23:01:15.199Z,32.85
2022-12-29T23:03:43.951Z,31.70
2022-12-29T23:06:14.290Z,32.20
2022-12-29T23:08:42.833Z,29.85
2022-12-29T23:11:14.596Z,31.33
2022-12-29T23:13:45.581Z,33.73
2022-12-29T23:16:15.418Z,30.02
2022-12-29T23:18:44.818Z,29.37
2022-12-29T23:21:12.884Z,29.77
2022-12-29T23:24:03.889Z,30.55
2022-12-29T23:26:34.863Z,30.20
2022-12-29T23:29:04.853Z,31.35
2022-12-29T23:34:15.673Z,29.95
2022-12-29T23:36:43.997Z,30.12
2022-12-29T23:39:15.814Z,29.70
2022-12-29T23:41:43.520Z,28.90
2022-12-29T23:44:11.638Z,28.95
2022-12-29T23:46:41.164Z,30.12
2022-12-29T23:49:10.051Z,29.27
2022-12-29T23:51:38.913Z,29.07
2022-12-29T23:54:07.288Z,28.40
2022-12-29T23:56:34.726Z,27.95
2022-12-29T23:59:06.367Z,28.12
